Time;durP1;ratioP1;P1;durP2;ratioP2;P2;SDS_P1;SDS_P2;PMS_P1;PMS_P2;Temp;Humidity;BMP_temperature;BMP_pressure;BME280_temperature;BME280_humidity;BME280_pressure;Samples;Min_cycle;Max_cycle;Signal;HPM_P1;HPM_P2
2021/05/06 00:00:02;;;;;;;13.85;2.47;;;;;;;6.34;64.59;99866.19;3989809;32;15027544;-77
2021/05/06 00:32:09;;;;;;;10.30;1.62;;;;;;;5.94;66.35;99807.56;4437378;32;20069;-78
2021/05/06 00:34:35;;;;;;;7.35;1.95;;;;;;;6.07;65.89;99814.06;4440472;32;20068;-78
2021/05/06 00:37:02;;;;;;;7.40;2.33;;;;;;;6.13;65.65;99812.34;4439461;32;20042;-78
2021/05/06 00:39:49;;;;;;;7.22;1.80;;;;;;;6.22;65.76;99808.19;4442506;32;20060;-78
2021/05/06 00:59:13;;;;;;;6.68;1.67;;;;;;;6.13;65.84;99795.59;4436696;32;20041;-78
2021/05/06 01:04:22;;;;;;;8.68;2.45;;;;;;;6.06;65.44;99790.16;3984298;32;15023597;-78
2021/05/06 01:09:41;;;;;;;20.05;6.35;;;;;;;5.70;66.38;99794.84;4440877;32;20017;-77
2021/05/06 01:12:07;;;;;;;7.65;2.80;;;;;;;5.78;66.14;99793.50;4442674;32;20025;-78
2021/05/06 01:14:33;;;;;;;12.18;2.67;;;;;;;5.71;66.70;99793.63;4438709;32;20029;-77
2021/05/06 01:17:00;;;;;;;6.85;2.37;;;;;;;5.81;66.39;99795.47;4442748;32;20084;-77
2021/05/06 01:19:26;;;;;;;11.68;2.72;;;;;;;5.97;65.74;99784.38;4438463;32;20038;-79
2021/05/06 01:21:54;;;;;;;6.82;2.25;;;;;;;5.92;65.59;99786.84;4438229;32;20504;-79
2021/05/06 01:24:21;;;;;;;14.48;2.05;;;;;;;5.99;65.43;99781.91;4435714;32;20069;-77
2021/05/06 01:26:56;;;;;;;9.60;2.78;;;;;;;5.85;65.64;99778.63;4440897;32;20043;-78
2021/05/06 01:29:28;;;;;;;13.38;2.37;;;;;;;5.76;66.34;99773.59;4438403;32;20050;-77
2021/05/06 01:34:40;;;;;;;10.65;2.00;;;;;;;5.60;67.28;99764.34;4433126;32;20624;-77
2021/05/06 01:42:43;;;;;;;9.85;2.60;;;;;;;5.85;66.79;99759.09;3986135;32;15027303;-78
2021/05/06 02:01:25;;;;;;;4.93;2.25;;;;;;;6.37;66.52;99745.97;3977097;32;15023024;-79
2021/05/06 02:03:51;;;;;;;5.55;2.10;;;;;;;6.37;66.52;99745.97;4436412;32;20080;-79
2021/05/06 02:06:17;;;;;;;9.15;2.22;;;;;;;5.95;66.87;99744.91;4430281;32;20029;-77
2021/05/06 02:08:42;;;;;;;10.32;2.03;;;;;;;5.98;66.54;99740.47;4435867;32;20529;-77
2021/05/06 02:11:08;;;;;;;10.77;2.62;;;;;;;5.93;66.71;99738.19;4437059;32;20029;-79
2021/05/06 02:13:33;;;;;;;10.00;2.42;;;;;;;6.05;65.86;99732.72;4435946;32;20073;-78
2021/05/06 02:16:03;;;;;;;14.80;3.78;;;;;;;6.13;65.42;99724.97;4435013;32;20098;-78
2021/05/06 02:18:31;;;;;;;10.82;3.20;;;;;;;6.23;65.22;99731.53;4435184;32;20619;-78
2021/05/06 02:20:57;;;;;;;6.95;2.08;;;;;;;6.00;66.20;99730.44;4437525;32;20103;-78
2021/05/06 02:23:22;;;;;;;9.85;4.10;;;;;;;6.06;65.86;99722.34;4434030;32;20045;-79
2021/05/06 02:25:48;;;;;;;9.27;2.10;;;;;;;6.05;66.00;99727.13;4432654;32;20110;-79
2021/05/06 02:28:15;;;;;;;6.87;2.30;;;;;;;6.29;65.84;99725.00;4438652;32;20017;-78
2021/05/06 02:30:41;;;;;;;8.73;2.37;;;;;;;6.11;66.37;99719.03;4437117;32;20199;-79
2021/05/06 02:33:09;;;;;;;7.07;2.28;;;;;;;6.10;65.97;99718.25;4433144;32;20077;-79
2021/05/06 02:35:36;;;;;;;6.37;2.53;;;;;;;6.13;65.88;99714.59;4434044;32;20105;-78
2021/05/06 02:38:04;;;;;;;7.82;2.65;;;;;;;6.18;66.04;99718.87;4436263;32;20033;-78
2021/05/06 02:40:29;;;;;;;7.15;2.80;;;;;;;6.29;65.28;99710.25;4433479;32;20140;-78
2021/05/06 02:42:55;;;;;;;10.02;3.00;;;;;;;6.21;65.65;99697.66;4430401;32;20495;-78
2021/05/06 02:45:21;;;;;;;11.45;4.30;;;;;;;6.33;65.13;99691.41;4431704;32;20121;-78
2021/05/06 02:47:47;;;;;;;10.20;3.97;;;;;;;6.35;65.19;99686.16;4433840;32;20054;-79
2021/05/06 02:50:14;;;;;;;13.85;4.72;;;;;;;6.43;64.86;99677.16;4433671;32;20093;-78
2021/05/06 02:52:49;;;;;;;15.40;4.70;;;;;;;6.48;64.94;99676.66;4434417;32;20041;-78
2021/05/06 02:55:26;;;;;;;;;;;;;;;6.82;63.93;99676.19;4435360;32;20041;-77
2021/05/06 03:03:15;;;;;;;14.15;5.20;;;;;;;7.20;62.73;99668.75;4434426;32;20127;-79
2021/05/06 03:05:40;;;;;;;17.95;5.65;;;;;;;6.59;63.76;99660.41;4434462;32;20461;-79
2021/05/06 03:08:11;;;;;;;13.75;5.57;;;;;;;6.61;64.08;99662.75;4434353;32;20119;-79
2021/05/06 03:10:48;;;;;;;16.15;5.60;;;;;;;6.63;64.35;99658.28;4434886;32;20041;-79
2021/05/06 03:24:32;;;;;;;6.57;3.08;;;;;;;7.23;61.67;99668.69;3985023;32;15021988;-78
2021/05/06 03:26:59;;;;;;;8.75;4.20;;;;;;;7.22;61.80;99669.91;4433790;32;20083;-78
2021/05/06 03:29:31;;;;;;;9.07;3.80;;;;;;;7.31;61.53;99670.06;4440227;32;20396;-78
2021/05/06 03:32:36;;;;;;;11.40;3.65;;;;;;;7.37;61.60;99671.06;4438588;32;20067;-77
2021/05/06 03:43:02;;;;;;;8.95;3.10;;;;;;;7.56;60.34;99683.34;4435734;32;19956;-79
2021/05/06 04:18:34;;;;;;;4.00;2.65;;;;;;;7.17;60.98;99659.25;4439441;32;20073;-78
2021/05/06 04:26:59;;;;;;;6.37;2.85;;;;;;;7.28;60.21;99664.56;4436740;32;20353;-78
2021/05/06 04:37:33;;;;;;;8.05;4.50;;;;;;;7.39;60.01;99653.81;4435335;32;20029;-79
2021/05/06 04:56:35;;;;;;;12.77;4.97;;;;;;;7.98;59.39;99632.44;3987012;32;15023999;-78
2021/05/06 05:04:34;;;;;;;11.52;4.37;;;;;;;7.61;59.38;99644.38;4421191;32;20061;-78
2021/05/06 05:07:09;;;;;;;10.13;4.37;;;;;;;7.53;59.45;99636.63;4425070;32;20700;-78
2021/05/06 05:25:36;;;;;;;10.70;4.97;;;;;;;7.89;60.41;99634.34;3988138;32;15023859;-78
2021/05/06 05:28:06;;;;;;;12.25;5.18;;;;;;;7.89;60.41;99634.34;4438996;32;20025;-78
2021/05/06 05:30:34;;;;;;;9.65;4.78;;;;;;;7.47;61.13;99633.59;4444254;32;20122;-78
2021/05/06 05:33:01;;;;;;;8.13;4.75;;;;;;;7.53;61.38;99631.03;4442545;32;20047;-78
2021/05/06 05:46:38;;;;;;;12.23;4.60;;;;;;;7.72;61.21;99630.84;3983769;32;15022861;-80
2021/05/06 05:54:49;;;;;;;12.23;5.65;;;;;;;7.40;61.66;99635.81;4438797;32;19999;-77
2021/05/06 05:57:08;;;;;;;16.37;8.20;;;;;;;7.25;62.33;99635.44;4440128;32;20073;-77
2021/05/06 05:59:34;;;;;;;9.60;5.20;;;;;;;7.28;62.37;99631.78;4444500;32;20144;-79
2021/05/06 06:02:01;;;;;;;9.98;6.03;;;;;;;7.19;61.01;99631.62;4431578;32;20049;-77
2021/05/06 06:04:26;;;;;;;17.40;8.98;;;;;;;7.24;61.60;99627.50;4423769;32;20422;-77
2021/05/06 06:06:53;;;;;;;15.50;7.85;;;;;;;7.37;61.93;99634.69;4422265;32;20038;-80
2021/05/06 06:09:18;;;;;;;18.17;7.70;;;;;;;7.55;60.95;99634.97;4423625;32;20041;-79
2021/05/06 06:11:44;;;;;;;16.33;5.97;;;;;;;7.59;60.75;99634.84;4426766;32;20069;-80
2021/05/06 06:14:10;;;;;;;13.62;6.60;;;;;;;7.75;59.92;99629.16;4424911;32;20455;-79
2021/05/06 06:16:39;;;;;;;19.30;7.82;;;;;;;7.72;60.12;99632.84;4424073;32;20053;-80
2021/05/06 06:19:05;;;;;;;12.80;5.62;;;;;;;7.79;59.84;99633.44;4423760;32;20049;-78
2021/05/06 06:24:10;;;;;;;16.42;8.00;;;;;;;8.32;58.95;99639.41;3983272;32;15023213;-79
2021/05/06 06:26:36;;;;;;;11.63;5.60;;;;;;;8.32;58.95;99639.41;4438867;32;20060;-78
2021/05/06 06:29:07;;;;;;;9.45;5.50;;;;;;;8.01;58.82;99627.97;4439737;32;20040;-78
2021/05/06 06:31:43;;;;;;;8.90;3.58;;;;;;;8.27;58.34;99625.94;4440427;32;20063;-78
2021/05/06 06:34:08;;;;;;;7.18;3.45;;;;;;;8.37;56.60;99634.03;4435021;32;20421;-78
2021/05/06 06:36:35;;;;;;;7.57;3.17;;;;;;;8.61;55.75;99634.44;4435532;32;20037;-79
2021/05/06 06:39:03;;;;;;;6.47;3.67;;;;;;;8.73;55.50;99631.59;4433161;32;20065;-75
2021/05/06 06:41:29;;;;;;;8.57;3.58;;;;;;;8.81;54.76;99637.75;4432753;32;20421;-75
2021/05/06 06:43:58;;;;;;;8.63;3.65;;;;;;;8.96;54.41;99633.22;4429488;32;20104;-76
2021/05/06 06:46:24;;;;;;;10.13;3.90;;;;;;;8.99;54.35;99635.87;4432020;32;20030;-74
2021/05/06 06:48:50;;;;;;;7.93;3.92;;;;;;;9.03;54.63;99632.97;4432750;32;20063;-77
2021/05/06 06:51:15;;;;;;;5.85;3.12;;;;;;;9.19;54.27;99632.78;4433680;32;20490;-77
2021/05/06 06:53:41;;;;;;;7.25;3.42;;;;;;;9.31;53.76;99635.56;4433111;32;20103;-77
2021/05/06 06:56:07;;;;;;;10.80;3.60;;;;;;;9.57;52.71;99641.78;4430161;32;20034;-77
2021/05/06 06:58:33;;;;;;;4.57;2.53;;;;;;;9.63;51.64;99635.13;4427403;32;20073;-77
2021/05/06 07:01:00;;;;;;;5.15;2.60;;;;;;;9.83;51.26;99644.00;4423083;32;20083;-78
2021/05/06 07:03:26;;;;;;;7.60;2.00;;;;;;;9.86;50.01;99636.69;4403456;32;20042;-78
2021/05/06 07:05:52;;;;;;;5.68;2.00;;;;;;;9.93;49.46;99642.81;4406209;32;20726;-78
2021/05/06 07:11:02;;;;;;;4.07;1.52;;;;;;;10.42;48.78;99651.31;3987977;32;15030511;-77
2021/05/06 07:13:28;;;;;;;5.65;1.52;;;;;;;10.42;48.78;99651.31;4435559;32;20498;-78
2021/05/06 07:18:33;;;;;;;4.03;2.05;;;;;;;10.10;49.83;99644.16;3951492;32;15726735;-79
2021/05/06 07:21:00;;;;;;;3.62;1.48;;;;;;;10.10;49.83;99644.16;4426458;32;20127;-79
2021/05/06 07:23:27;;;;;;;3.62;1.50;;;;;;;9.46;50.74;99639.41;4415543;32;20444;-79
2021/05/06 07:25:55;;;;;;;3.40;1.40;;;;;;;9.53;51.34;99647.56;4429377;32;20116;-77
2021/05/06 07:28:23;;;;;;;5.32;1.55;;;;;;;9.09;52.24;99645.97;4429268;32;20063;-78
2021/05/06 07:30:51;;;;;;;6.45;1.70;;;;;;;9.32;52.27;99642.72;4425560;32;20111;-78
2021/05/06 07:33:18;;;;;;;2.47;1.77;;;;;;;9.48;51.97;99642.53;4421485;32;20524;-79
2021/05/06 07:35:45;;;;;;;5.35;2.00;;;;;;;9.58;52.04;99638.53;4430248;32;20085;-78
2021/05/06 07:38:11;;;;;;;3.95;1.95;;;;;;;9.82;51.30;99636.81;4428832;32;20221;-82
2021/05/06 07:40:40;;;;;;;4.00;2.00;;;;;;;9.79;51.04;99617.28;4430091;32;20075;-81
2021/05/06 07:43:06;;;;;;;4.75;2.05;;;;;;;10.06;50.18;99617.41;4428185;32;21088;-80
2021/05/06 07:45:32;;;;;;;7.18;1.98;;;;;;;10.26;49.72;99629.09;4425707;32;20457;-79
2021/05/06 07:47:59;;;;;;;7.22;1.85;;;;;;;10.50;48.84;99627.28;4426369;32;20093;-81
2021/05/06 07:50:27;;;;;;;3.97;1.48;;;;;;;10.86;46.48;99624.53;4425873;32;20443;-83
2021/05/06 07:53:01;;;;;;;5.28;1.85;;;;;;;10.95;46.17;99632.97;4430025;32;20165;-79
2021/05/06 07:55:27;;;;;;;4.10;1.70;;;;;;;11.01;46.03;99622.66;4424731;32;20093;-81
2021/05/06 07:57:53;;;;;;;3.92;2.50;;;;;;;11.03;44.87;99627.81;4428890;32;20089;-81
2021/05/06 08:00:21;;;;;;;4.60;2.00;;;;;;;11.07;43.73;99628.44;4429963;32;20141;-80
2021/05/06 08:02:49;;;;;;;5.70;2.03;;;;;;;11.13;44.14;99630.19;4418896;32;20156;-81
2021/05/06 08:05:16;;;;;;;7.05;2.08;;;;;;;11.02;43.94;99615.00;4415153;32;20087;-83
2021/05/06 08:07:43;;;;;;;5.97;2.00;;;;;;;10.97;43.79;99610.00;4414587;32;20099;-81
2021/05/06 08:10:10;;;;;;;5.00;1.83;;;;;;;11.05;43.66;99616.88;4421355;32;20122;-82
2021/05/06 08:12:36;;;;;;;8.20;2.25;;;;;;;11.09;42.26;99614.69;4420468;32;20042;-81
2021/05/06 08:15:07;;;;;;;3.97;2.33;;;;;;;11.04;42.89;99606.88;4418971;32;20121;-81
2021/05/06 08:17:34;;;;;;;4.78;2.00;;;;;;;11.22;42.96;99618.13;4415825;32;20090;-82
2021/05/06 08:20:04;;;;;;;3.65;1.73;;;;;;;11.26;42.51;99610.31;4417169;32;20085;-82
2021/05/06 08:22:29;;;;;;;5.45;2.05;;;;;;;11.60;42.32;99615.59;4418560;32;20111;-80
2021/05/06 08:24:55;;;;;;;7.12;2.05;;;;;;;11.92;41.18;99614.91;4420450;32;20038;-81
2021/05/06 08:27:20;;;;;;;3.70;1.90;;;;;;;12.11;40.76;99610.75;4416751;32;20102;-80
2021/05/06 08:29:46;;;;;;;6.37;2.17;;;;;;;12.24;40.11;99611.31;4410099;32;20415;-79
2021/05/06 08:32:12;;;;;;;4.47;2.35;;;;;;;12.12;41.78;99620.78;4394345;32;20458;-82
2021/05/06 08:34:37;;;;;;;4.00;1.83;;;;;;;12.06;40.89;99619.87;4411046;32;20183;-81
2021/05/06 08:37:03;;;;;;;4.45;1.70;;;;;;;11.85;40.19;99618.06;4410307;32;20076;-78
2021/05/06 08:39:29;;;;;;;3.55;1.90;;;;;;;12.03;39.45;99613.13;4393921;32;20160;-79
2021/05/06 08:41:55;;;;;;;4.10;2.10;;;;;;;12.26;40.40;99616.50;4408257;32;20145;-78
2021/05/06 08:44:26;;;;;;;2.83;1.42;;;;;;;12.51;40.50;99621.69;4407987;32;20113;-79
2021/05/06 08:47:11;;;;;;;7.37;1.90;;;;;;;12.29;39.32;99616.34;4390919;32;20128;-79
2021/05/06 08:49:37;;;;;;;;;;;;;;;11.93;40.25;99613.66;4407326;32;20620;-79
2021/05/06 08:52:05;;;;;;;5.22;2.00;;;;;;;12.06;42.20;99617.06;4405081;32;20072;-79
2021/05/06 08:54:31;;;;;;;6.28;1.83;;;;;;;11.92;43.14;99614.91;4402681;32;20045;-80
2021/05/06 08:56:57;;;;;;;4.37;1.80;;;;;;;12.15;42.50;99619.06;4394926;32;20112;-79
2021/05/06 08:59:24;;;;;;;2.10;1.40;;;;;;;12.29;43.05;99619.16;4405764;32;20493;-78
2021/05/06 09:01:51;;;;;;;9.27;4.07;;;;;;;12.34;42.49;99624.16;4401344;32;20105;-78
2021/05/06 09:04:18;;;;;;;2.85;1.73;;;;;;;12.34;42.39;99621.34;4388825;32;20084;-78
2021/05/06 09:09:30;;;;;;;2.75;1.20;;;;;;;13.71;38.98;99620.63;3965784;32;15021336;-79
2021/05/06 09:12:06;;;;;;;4.80;1.35;;;;;;;13.71;38.98;99620.63;4423014;32;20065;-77
2021/05/06 09:17:33;;;;;;;2.55;1.20;;;;;;;13.37;37.27;99626.13;3977451;32;15025807;-84
2021/05/06 09:22:45;;;;;;;5.70;1.30;;;;;;;12.99;36.61;99617.63;3995488;31;15016875;-83
2021/05/06 09:25:38;;;;;;;3.83;1.00;;;;;;;13.39;36.88;99620.78;4447924;32;20175;-84
2021/05/06 09:28:21;;;;;;;3.20;1.00;;;;;;;13.60;33.54;99623.22;4450487;32;20061;-83
2021/05/06 09:30:52;;;;;;;1.50;0.95;;;;;;;14.01;34.31;99625.00;4433691;32;20135;-80
2021/05/06 09:33:47;;;;;;;2.22;0.80;;;;;;;14.76;32.35;99625.16;4447188;32;20500;-83
2021/05/06 09:36:16;;;;;;;4.50;1.27;;;;;;;14.09;32.56;99619.75;4427269;32;20227;-82
2021/05/06 09:38:46;;;;;;;3.33;1.65;;;;;;;13.83;34.15;99622.38;4445386;32;20073;-83
2021/05/06 09:41:16;;;;;;;3.10;1.45;;;;;;;13.37;35.63;99618.44;4446939;32;20469;-83
2021/05/06 09:43:43;;;;;;;3.15;1.20;;;;;;;13.61;35.29;99632.50;4435612;32;20494;-85
2021/05/06 09:46:31;;;;;;;8.85;1.50;;;;;;;13.27;34.10;99633.91;4447246;32;20531;-81
2021/05/06 09:54:22;;;;;;;1.40;0.68;;;;;;;14.22;31.14;99625.06;3963934;32;15021675;-82
2021/05/06 09:57:05;;;;;;;3.25;0.80;;;;;;;14.22;31.14;99625.06;4415645;32;20080;-81
2021/05/06 09:59:34;;;;;;;5.05;1.10;;;;;;;14.14;31.19;99618.28;4416831;32;20108;-82
2021/05/06 10:04:44;;;;;;;2.95;1.00;;;;;;;14.39;31.98;99640.31;3978680;32;15032932;-79
2021/05/06 10:12:37;;;;;;;2.22;1.55;;;;;;;15.15;31.33;99628.50;3979895;32;15022804;-80
2021/05/06 10:15:05;;;;;;;2.53;0.95;;;;;;;15.15;31.33;99628.50;4429672;32;20165;-81
2021/05/06 10:17:32;;;;;;;3.90;1.10;;;;;;;15.87;29.88;99630.88;4429639;32;20021;-82
2021/05/06 10:20:00;;;;;;;4.50;1.05;;;;;;;15.75;29.58;99636.94;4430610;32;20033;-78
2021/05/06 10:22:29;;;;;;;1.90;0.90;;;;;;;15.14;31.18;99629.78;4433036;32;20034;-80
2021/05/06 10:24:55;;;;;;;3.12;0.80;;;;;;;14.57;30.76;99643.66;4432516;32;20479;-81
2021/05/06 10:27:23;;;;;;;1.62;0.98;;;;;;;14.24;31.74;99625.41;4430744;32;20680;-83
2021/05/06 10:29:56;;;;;;;2.62;1.20;;;;;;;14.41;29.94;99632.88;4428576;32;20444;-79
2021/05/06 10:32:24;;;;;;;4.35;1.12;;;;;;;15.12;30.78;99623.81;4431629;32;20392;-81
2021/05/06 10:34:55;;;;;;;1.90;0.80;;;;;;;16.16;29.39;99627.00;4430014;32;20115;-81
2021/05/06 10:37:33;;;;;;;3.03;1.08;;;;;;;16.90;27.93;99624.94;4428027;32;20085;-82
2021/05/06 10:40:01;;;;;;;6.12;1.23;;;;;;;17.39;27.25;99621.56;4433205;32;20093;-80
2021/05/06 10:47:59;;;;;;;1.62;1.00;;;;;;;17.98;26.34;99636.44;3976643;32;15026595;-77
2021/05/06 10:53:06;;;;;;;1.67;1.00;;;;;;;18.41;25.73;99620.69;3967445;31;15708335;-77
2021/05/06 10:55:54;;;;;;;3.42;1.27;;;;;;;18.41;25.73;99620.69;4448021;32;20041;-77
2021/05/06 11:04:02;;;;;;;2.10;0.90;;;;;;;18.82;25.12;99621.69;3991186;31;15020049;-77
2021/05/06 11:06:48;;;;;;;2.62;1.00;;;;;;;18.82;25.12;99621.69;4446847;32;20136;-78
2021/05/06 11:22:54;;;;;;;3.80;0.82;;;;;;;22.67;19.37;99610.53;3994274;31;15018559;-78
2021/05/06 11:28:26;;;;;;;2.83;1.00;;;;;;;20.91;21.31;99602.38;3976426;32;15026849;-84
2021/05/06 11:30:55;;;;;;;2.80;1.00;;;;;;;20.91;21.31;99602.38;4431065;32;20153;-79
2021/05/06 11:33:25;;;;;;;6.50;1.10;;;;;;;21.29;20.39;99604.03;4429766;32;20041;-81
2021/05/06 11:43:50;;;;;;;4.62;1.42;;;;;;;19.56;23.10;99613.91;3984453;31;15019437;-79
2021/05/06 11:46:19;;;;;;;5.60;1.50;;;;;;;19.56;23.10;99613.91;4431146;32;20041;-79
2021/05/06 11:59:23;;;;;;;5.37;1.60;;;;;;;19.19;27.42;99604.19;3976333;32;15024062;-76
2021/05/06 12:01:51;;;;;;;4.75;1.20;;;;;;;19.19;27.42;99604.19;4427192;32;20087;-75
2021/05/06 12:04:23;;;;;;;3.03;0.98;;;;;;;19.45;25.11;99611.09;4425980;32;20062;-75
2021/05/06 12:06:49;;;;;;;2.58;0.80;;;;;;;18.33;26.63;99613.97;4426425;32;20073;-76
2021/05/06 12:09:25;;;;;;;3.28;0.88;;;;;;;17.06;28.29;99604.37;4429435;32;20161;-76
2021/05/06 12:11:50;;;;;;;;;;;;;;;16.29;28.85;99613.16;4428728;32;20044;-76
2021/05/06 12:14:27;;;;;;;1.40;0.60;;;;;;;16.55;28.71;99610.28;4428267;32;19992;-77
2021/05/06 12:16:53;;;;;;;1.65;0.60;;;;;;;16.27;27.57;99612.91;4428862;32;20071;-75
2021/05/06 12:19:20;;;;;;;2.58;1.30;;;;;;;16.71;26.64;99623.81;4425357;32;20054;-77
2021/05/06 12:27:25;;;;;;;1.75;1.00;;;;;;;18.76;25.01;99620.13;3966343;32;15024984;-79
2021/05/06 12:30:11;;;;;;;2.58;1.05;;;;;;;18.76;25.01;99620.13;4418499;32;20486;-78
2021/05/06 12:32:43;;;;;;;5.28;1.05;;;;;;;18.73;25.57;99607.72;4416821;32;20589;-76
2021/05/06 12:35:10;;;;;;;2.67;0.85;;;;;;;18.20;27.01;99621.47;4416572;32;20211;-77
2021/05/06 12:37:38;;;;;;;2.45;1.27;;;;;;;18.08;27.37;99608.53;4415228;32;20095;-76
2021/05/06 12:40:10;;;;;;;2.35;0.90;;;;;;;17.92;27.05;99601.53;4416424;32;20081;-79
2021/05/06 12:42:37;;;;;;;4.25;1.10;;;;;;;18.15;26.94;99602.31;4415674;32;20088;-77
2021/05/06 12:45:22;;;;;;;3.12;1.40;;;;;;;18.59;26.58;99597.37;4415236;32;20073;-77
2021/05/06 12:47:49;;;;;;;3.12;0.95;;;;;;;18.78;25.69;99600.44;4415570;32;20477;-78
2021/05/06 12:53:08;;;;;;;5.68;1.20;;;;;;;20.36;22.94;99587.88;3966467;32;15025698;-77
2021/05/06 12:55:42;;;;;;;5.53;1.10;;;;;;;20.36;22.94;99587.88;4421977;32;20421;-77
2021/05/06 13:00:45;;;;;;;4.23;1.13;;;;;;;19.62;22.35;99583.25;3986683;31;15017006;-77
2021/05/06 13:03:13;;;;;;;3.97;1.00;;;;;;;19.62;22.35;99583.25;4449831;32;20067;-76
2021/05/06 13:05:43;;;;;;;3.90;1.02;;;;;;;19.19;21.66;99581.37;4450870;32;20064;-77
2021/05/06 13:08:09;;;;;;;2.30;0.68;;;;;;;19.58;20.64;99574.19;4436626;32;20148;-80
2021/05/06 13:13:47;;;;;;;4.97;1.08;;;;;;;19.49;20.92;99588.75;3974749;32;15027031;-83
2021/05/06 13:16:16;;;;;;;5.78;0.82;;;;;;;19.49;20.92;99588.75;4423885;32;20099;-82
2021/05/06 13:18:58;;;;;;;3.55;0.68;;;;;;;19.79;20.11;99583.91;4425421;32;20033;-81
2021/05/06 13:21:24;;;;;;;4.03;0.90;;;;;;;19.04;21.30;99575.22;4427070;32;20065;-80
2021/05/06 13:23:54;;;;;;;6.28;1.17;;;;;;;19.00;23.99;99594.69;4425427;32;20065;-82
2021/05/06 13:26:38;;;;;;;3.78;1.00;;;;;;;19.50;24.34;99596.03;4423620;32;20103;-83
2021/05/06 13:29:07;;;;;;;4.32;1.30;;;;;;;19.48;24.58;99592.91;4424919;32;20068;-82
2021/05/06 13:31:36;;;;;;;2.45;0.80;;;;;;;18.44;24.53;99594.03;4423390;32;20520;-82
2021/05/06 13:34:13;;;;;;;5.03;1.00;;;;;;;17.34;25.98;99580.44;4425688;32;20542;-85
2021/05/06 13:36:39;;;;;;;3.30;0.40;;;;;;;18.75;24.35;99585.16;4426187;32;20033;-86
2021/05/06 13:39:08;;;;;;;0.85;0.50;;;;;;;19.62;23.03;99573.91;4422330;32;20077;-85
2021/05/06 13:41:37;;;;;;;2.85;0.70;;;;;;;20.21;23.03;99593.19;4426701;32;20046;-86
2021/05/06 13:44:06;;;;;;;2.37;0.50;;;;;;;20.54;22.75;99590.03;4426099;32;20033;-86
2021/05/06 13:46:34;;;;;;;1.25;0.52;;;;;;;20.62;22.34;99591.03;4426231;32;20077;-88
2021/05/06 13:49:01;;;;;;;3.47;0.80;;;;;;;20.92;22.24;99598.22;4423608;32;20064;-87
2021/05/06 13:51:28;;;;;;;2.12;0.57;;;;;;;21.20;21.96;99617.97;4420976;32;20080;-85
2021/05/06 13:53:55;;;;;;;2.45;0.68;;;;;;;21.16;21.90;99612.53;4423305;32;20111;-83
2021/05/06 13:56:22;;;;;;;2.50;0.62;;;;;;;20.88;22.74;99600.59;4422400;32;20109;-86
2021/05/06 13:58:49;;;;;;;4.75;1.12;;;;;;;20.39;23.51;99601.09;4419658;32;20065;-85
2021/05/06 14:01:15;;;;;;;5.03;1.10;;;;;;;19.71;24.93;99599.28;4423367;32;20104;-79
2021/05/06 14:03:41;;;;;;;7.68;1.10;;;;;;;18.41;27.40;99615.00;4420584;32;20576;-83
2021/05/06 14:06:07;;;;;;;5.00;1.10;;;;;;;16.93;31.66;99616.19;4417626;32;20096;-82
2021/05/06 14:08:33;;;;;;;6.62;0.70;;;;;;;16.38;33.13;99626.41;4421764;32;20500;-82
2021/05/06 14:11:00;;;;;;;4.00;0.80;;;;;;;17.27;31.64;99625.63;4423321;32;20546;-82
2021/05/06 14:13:26;;;;;;;3.62;1.02;;;;;;;16.79;32.16;99630.59;4417388;32;20084;-82
2021/05/06 14:15:53;;;;;;;2.00;0.57;;;;;;;16.81;32.43;99628.78;4421927;32;20514;-83
2021/05/06 14:18:19;;;;;;;4.62;1.08;;;;;;;17.52;30.90;99624.75;4420231;32;21152;-82
2021/05/06 14:20:47;;;;;;;6.70;1.00;;;;;;;16.91;32.60;99624.44;4422171;32;20100;-82
2021/05/06 14:23:15;;;;;;;5.70;1.30;;;;;;;16.16;34.56;99640.41;4415980;32;20453;-84
2021/05/06 14:25:41;;;;;;;6.18;1.30;;;;;;;15.66;36.01;99643.56;4412045;32;20085;-83
2021/05/06 14:28:06;;;;;;;6.05;1.30;;;;;;;14.37;39.95;99642.84;4413729;32;20106;-78
2021/05/06 14:30:33;;;;;;;9.63;3.97;;;;;;;14.08;41.29;99646.44;4418850;32;20042;-79
2021/05/06 14:32:59;;;;;;;5.97;1.50;;;;;;;13.85;43.20;99636.03;4414662;32;20155;-79
2021/05/06 14:35:27;;;;;;;1.52;0.70;;;;;;;13.82;45.28;99622.88;4412671;32;20041;-78
2021/05/06 14:37:53;;;;;;;6.20;0.93;;;;;;;14.07;45.88;99634.38;4407067;32;20093;-78
2021/05/06 14:40:19;;;;;;;6.18;0.93;;;;;;;14.57;42.46;99640.06;4414231;32;20042;-78
2021/05/06 14:42:45;;;;;;;3.47;1.02;;;;;;;14.82;40.80;99623.16;4413638;32;20471;-78
2021/05/06 14:45:11;;;;;;;6.65;1.00;;;;;;;15.91;38.57;99634.28;4413583;32;20040;-77
2021/05/06 14:47:38;;;;;;;5.57;1.02;;;;;;;16.40;37.13;99629.50;4415276;32;20144;-78
2021/05/06 14:50:05;;;;;;;4.85;0.90;;;;;;;16.39;36.96;99622.28;4422324;32;20070;-80
2021/05/06 14:52:35;;;;;;;3.60;1.08;;;;;;;15.74;37.40;99624.81;4405490;32;20088;-79
2021/05/06 14:55:03;;;;;;;5.15;0.88;;;;;;;15.83;37.85;99621.03;4411485;32;20029;-79
2021/05/06 14:57:28;;;;;;;5.82;1.05;;;;;;;15.94;37.96;99621.16;4415158;32;20096;-79
2021/05/06 14:59:54;;;;;;;3.37;0.60;;;;;;;16.58;36.40;99629.94;4413672;32;20042;-79
2021/05/06 15:02:20;;;;;;;3.65;0.95;;;;;;;18.68;32.99;99633.38;4418364;32;20034;-79
2021/05/06 15:04:46;;;;;;;2.25;0.70;;;;;;;20.40;30.09;99634.09;4410691;32;20448;-79
2021/05/06 15:07:12;;;;;;;1.33;0.55;;;;;;;21.44;28.31;99641.56;4415400;32;20409;-79
2021/05/06 15:09:38;;;;;;;2.37;0.60;;;;;;;20.75;28.93;99634.81;4414455;32;20407;-81
2021/05/06 15:12:06;;;;;;;1.20;0.40;;;;;;;20.20;30.18;99634.50;4420659;32;20081;-80
2021/05/06 15:14:31;;;;;;;4.15;0.95;;;;;;;20.80;29.30;99636.81;4418763;32;20081;-80
2021/05/06 15:16:57;;;;;;;1.15;0.40;;;;;;;21.90;28.10;99636.81;4417253;32;20093;-79
2021/05/06 15:19:23;;;;;;;2.65;0.82;;;;;;;21.99;27.28;99636.44;4414849;32;20069;-78
2021/05/06 15:21:48;;;;;;;2.53;0.62;;;;;;;21.79;27.57;99634.87;4420363;32;20474;-77
2021/05/06 15:24:14;;;;;;;3.03;0.50;;;;;;;20.92;28.87;99643.97;4413196;32;20144;-78
2021/05/06 15:26:40;;;;;;;2.53;0.70;;;;;;;20.93;29.00;99622.63;4416292;32;20038;-76
2021/05/06 15:29:07;;;;;;;1.83;0.50;;;;;;;22.78;26.72;99641.88;4420445;32;20081;-77
2021/05/06 15:31:33;;;;;;;2.22;0.70;;;;;;;23.45;25.46;99645.03;4417045;32;20413;-77
2021/05/06 15:33:59;;;;;;;3.65;0.60;;;;;;;22.43;26.48;99635.72;4412616;32;21773;-77
2021/05/06 15:36:25;;;;;;;1.90;0.80;;;;;;;23.28;25.74;99635.97;4413619;32;20069;-78
2021/05/06 15:38:52;;;;;;;5.03;0.80;;;;;;;21.96;27.05;99626.81;4405964;32;20539;-75
2021/05/06 15:41:17;;;;;;;2.65;0.65;;;;;;;22.25;26.57;99633.66;4416167;32;20066;-75
2021/05/06 15:43:43;;;;;;;4.05;1.35;;;;;;;21.04;27.86;99622.53;4412366;32;20155;-77
2021/05/06 15:46:10;;;;;;;3.78;1.10;;;;;;;19.87;29.85;99638.34;4415650;32;20017;-77
2021/05/06 15:48:37;;;;;;;2.62;0.73;;;;;;;19.09;30.76;99631.47;4416972;32;20166;-75
2021/05/06 15:51:03;;;;;;;2.03;0.50;;;;;;;19.78;30.37;99642.31;4415593;32;20401;-78
2021/05/06 15:53:30;;;;;;;2.40;0.60;;;;;;;20.52;29.43;99638.41;4417443;32;20377;-74
2021/05/06 15:55:58;;;;;;;2.50;0.62;;;;;;;19.87;30.84;99632.66;4415094;32;20153;-75
2021/05/06 15:58:24;;;;;;;1.30;0.40;;;;;;;21.13;29.05;99636.50;4410895;32;20038;-76
2021/05/06 16:00:54;;;;;;;2.03;0.70;;;;;;;22.03;27.77;99620.44;4415466;32;20444;-76
2021/05/06 16:03:21;;;;;;;2.53;0.77;;;;;;;23.07;26.59;99622.81;4414971;32;20099;-76
2021/05/06 16:05:52;;;;;;;1.83;0.60;;;;;;;24.42;24.65;99635.25;4416271;32;20080;-75
2021/05/06 16:08:18;;;;;;;2.80;0.82;;;;;;;25.53;23.42;99638.78;4418105;32;20108;-75
2021/05/06 16:10:44;;;;;;;1.73;0.80;;;;;;;26.06;22.49;99639.78;4407896;32;20050;-76
2021/05/06 16:13:11;;;;;;;4.62;0.93;;;;;;;25.45;23.42;99641.63;4416324;32;20235;-75
2021/05/06 16:15:37;;;;;;;3.83;0.75;;;;;;;23.95;25.42;99640.28;4406284;32;20056;-75
2021/05/06 16:18:04;;;;;;;3.03;0.80;;;;;;;24.42;24.74;99641.00;4415686;32;20041;-76
2021/05/06 16:20:33;;;;;;;7.05;0.85;;;;;;;22.93;26.67;99652.81;4411398;32;20106;-76
2021/05/06 16:22:59;;;;;;;4.53;0.75;;;;;;;20.22;30.56;99646.94;4418800;32;20094;-75
2021/05/06 16:25:25;;;;;;;2.12;0.50;;;;;;;17.85;38.07;99665.44;4416783;32;20042;-76
2021/05/06 16:27:51;;;;;;;1.30;0.70;;;;;;;14.53;47.46;99659.31;4418055;32;20026;-79
2021/05/06 16:30:18;;;;;;;1.87;0.68;;;;;;;12.86;52.53;99650.97;4415612;32;20120;-76
2021/05/06 16:32:45;;;;;;;2.28;0.80;;;;;;;11.95;56.91;99650.63;4418481;32;20085;-77
2021/05/06 16:35:17;;;;;;;1.67;0.60;;;;;;;11.46;58.84;99645.19;4419620;32;20091;-76